Latest Coastal Weather Observations for Cape Bruny AWS

IDT60701

Issued at 9:35 pm EST Thursday 24 April 2014 (issued every 10 minutes, with the page automatically refreshed every 10 minutes)

About coastal observations | Map of coastal stations | Coastal observations for TAS | Marine services | Other Formats
Station Details ID: 094198 Name: CAPE BRUNY (CAPE BRUNY) Lat: -43.49 Lon: 147.14 Height: 59.7 m
Data from the previous 72 hours. | See also: Recent months at Cape Bruny AWS
Date/Time
EST
Temp

°C
Wind Pressure Rain
since 9am
mm
Weather Cloud Vis
km
Sea
Height
m
Swell
Dir
 
Speed
knots
Gust
knots
hPa Trend Height
m
Period
s
Dir
24/09:30pm 9.4 WNW 16 20 1015.3 - 1.4 - - - - - - -
24/09:00pm 9.6 NW 15 19 1015.1 - 1.4 - - - - - - -
24/08:30pm 9.8 W 16 21 1014.4 - 1.4 - - - - - - -
24/08:10pm 10.1 W 22 32 1013.9 - 1.4 - - - - - - -
24/08:00pm 10.1 W 23 31 1013.6 - 1.4 - - - - - - -
24/07:30pm 10.0 W 21 26 1013.6 - 1.4 - - - - - - -
24/07:00pm 9.7 W 21 30 1013.0 - 1.4 - - - - - - -
24/06:30pm 9.3 W 26 34 1011.8 - 1.4 - - - - - - -
24/06:20pm 9.0 W 27 37 1011.6 - 1.4 - - - - - - -
24/06:00pm 8.2 W 27 34 1011.5 - 1.4 - - - - - - -
24/05:30pm 7.7 W 33 41 1011.2 - 1.2 - - - - - - -
24/05:00pm 7.9 W 31 46 1010.6 - 0.8 - - - - - - -
24/04:54pm 8.2 W 31 41 1010.2 - 0.8 - - - - - - -
24/04:44pm 8.2 W 34 39 1010.1 - 0.8 - - - - - - -
24/04:30pm 8.2 W 22 33 1010.0 - 0.8 - - - - - - -
24/04:09pm 10.0 W 26 36 1009.9 - 0.8 - - - - - - -
24/04:00pm 10.2 W 30 37 1009.4 - 0.8 - - - - - - -
24/03:35pm 9.8 W 29 39 1008.7 - 0.6 - - - - - - -
24/03:30pm 10.1 W 28 35 1008.6 - 0.6 - - - - - - -
24/03:08pm 10.1 W 27 37 1008.4 - 0.6 - - - - - - -
24/03:00pm 11.0 W 28 34 1008.3 - 0.6 - - - - - - -
24/02:30pm 9.4 W 22 32 1008.0 - 0.6 - - - - - - -
24/02:28pm 9.8 W 22 32 1008.0 - 0.6 - - - - - - -
24/02:00pm 7.9 W 21 39 1007.9 - 0.6 - - - - - - -
24/01:30pm 9.5 W 32 46 1006.9 - 0.2 - - - - - - -
24/01:11pm 8.9 W 35 45 1006.4 - 0.2 - - - - - - -
24/01:07pm 8.6 W 37 45 1006.1 - 0.2 - - - - - - -
24/01:00pm 10.1 W 25 35 1006.1 - 0.0 - - - - - - -
24/12:51pm 10.6 WSW 26 36 1006.1 - 0.0 - - - - - - -
24/12:39pm 11.4 W 29 45 1006.0 - 0.0 - - - - - - -
24/12:30pm 10.9 W 39 46 1005.7 - 0.0 - - - - - - -
24/12:28pm 11.1 W 40 46 1005.6 - 0.0 - - - - - - -
24/12:00pm 11.0 W 26 41 1005.4 - 0.0 - - - - - - -
24/11:36am 11.1 W 27 38 1005.0 - 0.0 - - - - - - -
24/11:30am 11.4 W 28 36 1004.8 - 0.0 - - - - - - -
24/11:00am 9.5 W 31 45 1004.3 - 0.0 - - - - - - -
24/10:57am 10.3 W 27 45 1004.2 - 0.0 - - - - - - -
24/10:41am 10.5 W 25 35 1004.1 - 0.0 - - - - - - -
24/10:30am 9.9 W 29 36 1003.9 - 0.0 - - - - - - -
24/10:24am 9.7 W 25 40 1003.9 - 0.0 - - - - - - -
24/10:19am 8.9 W 35 40 1003.9 - 0.0 - - - - - - -
24/10:04am 11.0 W 24 38 1003.7 - 0.0 - - - - - - -
24/10:00am 10.7 W 24 31 1003.5 - 0.0 - - - - - - -
24/09:43am 9.6 W 25 37 1003.1 - 0.0 - - - - - - -
24/09:30am 9.2 W 27 31 1003.0 - 0.0 - - - - - - -
24/09:00am 8.7 W 27 38 1002.6 - 3.2 - - - - - - -
24/08:49am 10.2 W 26 36 1002.4 - 2.6 - - - - - - -
24/08:30am 10.4 W 27 33 1002.1 - 2.6 - - - - - - -
24/08:05am 10.2 W 22 35 1001.6 - 2.6 - - - - - - -
24/08:00am 10.2 W 19 28 1001.6 - 2.6 - - - - - - -
24/07:32am 9.5 W 17 27 1000.6 - 2.6 - - - - - - -
24/07:30am 9.4 W 16 23 1000.5 - 2.6 - - - - - - -
24/07:13am 9.1 W 18 28 1000.3 - 2.6 - - - - - - -
24/07:00am 9.1 W 15 19 1000.4 - 2.6 - - - - - - -
24/06:39am 9.4 W 15 25 1000.1 - 2.6 - - - - - - -
24/06:30am 9.7 W 15 21 1000.2 - 2.6 - - - - - - -
24/06:00am 9.1 WNW 14 21 999.5 - 2.6 - - - - - - -
24/05:30am 9.1 WNW 17 23 999.4 - 2.6 - - - - - - -
24/05:00am 9.2 WNW 17 22 999.5 - 2.6 - - - - - - -
24/04:39am 9.6 WNW 21 31 999.2 - 2.6 - - - - - - -
24/04:30am 9.7 WNW 19 27 999.2 - 2.4 - - - - - - -
24/04:00am 10.3 W 17 25 998.8 - 2.2 - - - - - - -
24/03:52am 10.3 W 21 31 998.6 - 2.0 - - - - - - -
24/03:38am 11.4 W 21 26 998.2 - 0.2 - - - - - - -
24/03:30am 13.2 WNW 9 11 997.4 - 0.0 - - - - - - -
24/03:00am 13.5 NNW 9 13 997.3 - 0.0 - - - - - - -
24/02:30am 13.5 N 12 20 997.7 - 0.0 - - - - - - -
24/02:00am 13.2 N 12 18 998.7 - 0.0 - - - - - - -
24/01:30am 13.3 NNW 12 16 999.7 - 0.0 - - - - - - -
24/01:00am 13.3 NNW 13 19 1000.4 - 0.0 - - - - - - -
24/12:30am 13.0 NNW 12 16 1000.9 - 0.0 - - - - - - -
24/12:00am 12.9 N 12 18 1001.2 - 0.0 - - - - - - -
 
Date/Time
EST
Temp

°C
Wind Pressure Rain
since 9am
mm
Weather Cloud Vis
km
Sea
Height
m
Swell
Dir
 
Speed
knots
Gust
knots
hPa Trend Height
m
Period
s
Dir
23/11:30pm 13.3 N 12 17 1001.5 - 0.0 - - - - - - -
23/11:00pm 12.3 ENE 5 8 1002.4 - 0.0 - - - - - - -
23/10:30pm 12.3 E 6 8 1003.0 - 0.0 - - - - - - -
23/10:00pm 12.8 NE 6 9 1003.8 - 0.0 - - - - - - -
23/09:30pm 12.8 N 6 10 1004.6 - 0.0 - - - - - - -
23/09:00pm 13.3 N 9 11 1004.8 - 0.0 - - - - - - -
23/08:30pm 13.4 N 10 14 1005.1 - 0.0 - - - - - - -
23/08:00pm 12.8 N 7 11 1005.7 - 0.0 - - - - - - -
23/07:30pm 12.7 N 6 8 1006.2 - 0.0 - - - - - - -
23/07:00pm 12.8 NNW 7 10 1006.4 - 0.0 - - - - - - -
23/06:30pm 13.2 N 6 10 1006.5 - 0.0 - - - - - - -
23/06:00pm 13.0 N 6 8 1006.7 - 0.0 - - - - - - -
23/05:30pm 13.5 N 6 8 1006.9 - 0.0 - - - - - - -
23/05:00pm 14.4 NNW 9 15 1007.2 - 0.0 - - - - - - -
23/04:30pm 14.1 NNW 9 12 1007.4 - 0.0 - - - - - - -
23/04:00pm 14.2 NNW 9 15 1007.8 - 0.0 - - - - - - -
23/03:30pm 14.0 NNW 7 10 1008.0 - 0.0 - - - - - - -
23/03:00pm 14.0 N 8 13 1008.4 - 0.0 - - - - - - -
23/02:30pm 14.1 N 7 11 1008.6 - 0.0 - - - - - - -
23/02:00pm 14.5 NNE 8 13 1009.1 - 0.0 - - - - - - -
23/01:30pm 14.4 N 9 13 1009.5 - 0.0 - - - - - - -
23/01:00pm 13.5 N 9 13 1009.9 - 0.0 - - - - - - -
23/12:30pm 13.7 NNE 9 14 1010.1 - 0.0 - - - - - - -
23/12:00pm 13.6 NNE 9 13 1010.6 - 0.0 - - - - - - -
23/11:30am 13.6 N 9 15 1011.3 - 0.0 - - - - - - -
23/11:00am 13.2 N 10 15 1011.4 - 0.0 - - - - - - -
23/10:30am 12.3 N 10 16 1011.7 - 0.0 - - - - - - -
23/10:00am 11.6 NNE 9 14 1012.1 - 0.0 - - - - - - -
23/09:30am 11.3 N 10 15 1012.5 - 0.0 - - - - - - -
23/09:00am 11.3 N 9 15 1012.8 - 0.4 - - - - - - -
23/08:30am 11.1 N 10 14 1012.9 - 0.4 - - - - - - -
23/08:00am 10.7 N 8 13 1012.9 - 0.4 - - - - - - -
23/07:30am 10.3 N 7 9 1012.9 - 0.4 - - - - - - -
23/07:00am 10.0 NNW 9 12 1012.6 - 0.4 - - - - - - -
23/06:30am 10.2 N 10 13 1012.6 - 0.4 - - - - - - -
23/06:00am 10.5 N 7 11 1012.8 - 0.4 - - - - - - -
23/05:30am 10.3 N 9 11 1012.8 - 0.4 - - - - - - -
23/05:00am 11.2 NW 14 16 1012.7 - 0.4 - - - - - - -
23/04:30am 11.3 WNW 14 17 1012.7 - 0.4 - - - - - - -
23/04:00am 11.3 WNW 12 17 1012.7 - 0.4 - - - - - - -
23/03:30am 11.6 WNW 12 16 1012.5 - 0.4 - - - - - - -
23/03:00am 11.7 W 15 19 1012.6 - 0.4 - - - - - - -
23/02:30am 11.8 W 20 26 1012.2 - 0.4 - - - - - - -
23/02:00am 11.9 W 19 26 1012.4 - 0.4 - - - - - - -
23/01:30am 12.0 WNW 19 25 1012.2 - 0.4 - - - - - - -
23/01:00am 11.8 WNW 19 24 1012.2 - 0.4 - - - - - - -
23/12:30am 11.9 WNW 17 23 1012.4 - 0.4 - - - - - - -
23/12:00am 11.7 WNW 19 24 1012.3 - 0.4 - - - - - - -
 
Date/Time
EST
Temp

°C
Wind Pressure Rain
since 9am
mm
Weather Cloud Vis
km
Sea
Height
m
Swell
Dir
 
Speed
knots
Gust
knots
hPa Trend Height
m
Period
s
Dir
22/11:50pm 11.8 WNW 16 23 1012.2 - 0.4 - - - - - - -
22/11:30pm 11.0 NW 9 12 1012.4 - 0.4 - - - - - - -
22/11:00pm 11.2 W 8 11 1012.5 - 0.4 - - - - - - -
22/10:30pm 11.6 W 11 13 1012.3 - 0.4 - - - - - - -
22/10:00pm 11.5 WNW 15 19 1012.1 - 0.4 - - - - - - -
22/09:30pm 12.4 W 17 21 1011.7 - 0.4 - - - - - - -
22/09:00pm 12.3 W 8 13 1011.3 - 0.4 - - - - - - -
22/08:30pm 13.0 WNW 14 20 1011.0 - 0.4 - - - - - - -
22/08:00pm 13.1 WNW 14 20 1010.4 - 0.4 - - - - - - -
22/07:30pm 13.1 W 20 26 1010.1 - 0.4 - - - - - - -
22/07:00pm 13.2 WNW 21 26 1009.7 - 0.4 - - - - - - -
22/06:30pm 13.2 WNW 17 22 1009.7 - 0.4 - - - - - - -
22/06:14pm 13.2 WNW 15 25 1009.6 - 0.4 - - - - - - -
22/06:00pm 13.1 WNW 15 21 1009.6 - 0.4 - - - - - - -
22/05:30pm 13.6 WNW 23 28 1008.9 - 0.4 - - - - - - -
22/05:00pm 14.1 WNW 19 27 1008.3 - 0.4 - - - - - - -
22/04:49pm 14.0 WNW 16 26 1008.3 - 0.4 - - - - - - -
22/04:30pm 14.5 WNW 22 29 1007.8 - 0.4 - - - - - - -
22/04:00pm 14.6 WNW 28 38 1007.2 - 0.4 - - - - - - -
22/03:30pm 14.5 WNW 28 38 1006.9 - 0.4 - - - - - - -
22/03:00pm 13.9 WNW 22 32 1007.4 - 0.4 - - - - - - -
22/02:52pm 13.9 WNW 21 31 1007.3 - 0.4 - - - - - - -
22/02:30pm 14.0 WNW 25 31 1007.2 - 0.4 - - - - - - -
22/02:00pm 15.6 WNW 22 27 1007.1 - 0.4 - - - - - - -
22/01:30pm 16.2 W 17 22 1007.1 - 0.4 - - - - - - -
22/01:00pm 15.0 W 18 24 1006.9 - 0.4 - - - - - - -
22/12:30pm 14.4 W 19 27 1006.7 - 0.4 - - - - - - -
22/12:27pm 13.9 W 21 31 1006.6 - 0.4 - - - - - - -
22/12:00pm 13.1 W 26 35 1006.2 - 0.4 - - - - - - -
22/11:33am 13.6 W 27 37 1005.9 - 0.4 - - - - - - -
22/11:30am 13.6 W 28 37 1005.9 - 0.4 - - - - - - -
22/11:00am 13.6 WSW 21 32 1005.9 - 0.0 - - - - - - -
22/10:30am 14.8 W 18 24 1005.4 - 0.0 - - - - - - -
22/10:00am 15.3 W 16 21 1004.9 - 0.0 - - - - - - -
22/09:30am 15.0 W 12 17 1004.7 - 0.0 - - - - - - -
22/09:10am 14.1 NW 6 22 1004.8 - 0.0 - - - - - - -
22/09:00am 14.5 W 20 27 1004.9 - 2.4 - - - - - - -
22/08:53am 15.1 WNW 15 25 1004.8 - 2.4 - - - - - - -
22/08:30am 15.5 W 15 19 1004.6 - 2.4 - - - - - - -
22/08:00am 15.4 WNW 12 18 1004.2 - 2.4 - - - - - - -
22/07:34am 15.4 W 17 27 1003.7 - 2.4 - - - - - - -
22/07:30am 15.6 W 19 27 1003.6 - 2.4 - - - - - - -
22/07:00am 15.3 W 17 21 1003.3 - 2.4 - - - - - - -
22/06:30am 15.4 WNW 16 21 1003.1 - 2.4 - - - - - - -
22/06:00am 15.2 WNW 13 18 1002.7 - 2.4 - - - - - - -
22/05:30am 14.5 NW 7 10 1002.5 - 2.4 - - - - - - -
22/05:00am 13.9 N 8 16 1002.2 - 2.4 - - - - - - -
22/04:30am 12.7 N 12 17 1001.5 - 2.4 - - - - - - -
22/04:00am 12.9 N 11 17 1001.3 - 2.4 - - - - - - -
22/03:30am 12.7 N 11 16 1000.9 - 2.4 - - - - - - -
22/03:00am 12.0 NNE 9 14 1000.9 - 2.4 - - - - - - -
22/02:30am 11.5 NNE 12 17 1001.3 - 2.4 - - - - - - -
22/02:00am 11.4 NNE 10 15 1001.8 - 2.4 - - - - - - -
22/01:30am 11.3 N 7 11 1002.4 - 2.4 - - - - - - -
22/01:00am 11.0 NNE 10 14 1002.7 - 2.4 - - - - - - -
22/12:30am 10.9 N 9 14 1003.7 - 2.0 - - - - - - -
22/12:00am 10.7 NNE 11 16 1004.6 - 2.0 - - - - - - -
 
Date/Time
EST
Temp

°C
Wind Pressure Rain
since 9am
mm
Weather Cloud Vis
km
Sea
Height
m
Swell
Dir
 
Speed
knots
Gust
knots
hPa Trend Height
m
Period
s
Dir
21/11:30pm 10.4 NNE 10 16 1005.6 - 1.8 - - - - - - -
21/11:00pm 10.3 NE 10 14 1006.5 - 1.6 - - - - - - -
21/10:30pm 10.3 NNE 9 14 1007.4 - 1.6 - - - - - - -
21/10:00pm 10.0 N 10 13 1008.1 - 1.0 - - - - - - -

Other Formats:

Comma delimited format used in spreadsheet applications
http://www.bom.gov.au/fwo/IDT60701/IDT60701.95967.axf

JavaScript Object Notation format (JSON) in row-major order
http://www.bom.gov.au/fwo/IDT60701/IDT60701.95967.json